createdAt,value
2017-11-12T00:00:44.231Z,100009.70
2017-11-12T00:03:17.977Z,100010.11
2017-11-12T00:05:52.216Z,100002.70
2017-11-12T00:08:24.072Z,100006.64
2017-11-12T00:10:58.488Z,100008.03
2017-11-12T00:13:31.436Z,100007.27
2017-11-12T00:16:07.461Z,100003.25
2017-11-12T00:18:41.729Z,99995.31
2017-11-12T00:21:13.936Z,100000.20
2017-11-12T00:26:51.422Z,99989.17
2017-11-12T00:29:25.000Z,99989.17
2017-11-12T00:32:14.314Z,99990.84
2017-11-12T00:34:46.080Z,99986.81
2017-11-12T00:40:27.454Z,99975.74
2017-11-12T00:42:59.125Z,99969.63
2017-11-12T00:45:31.114Z,99966.86
2017-11-12T00:48:08.661Z,99969.36
2017-11-12T00:50:40.948Z,99970.56
2017-11-12T00:53:12.749Z,99969.59
2017-11-12T00:55:46.584Z,99966.06
2017-11-12T00:58:23.396Z,99966.42
2017-11-12T01:00:55.296Z,99957.81
2017-11-12T01:03:27.177Z,99956.59
2017-11-12T01:05:59.533Z,99951.88
2017-11-12T01:08:31.447Z,99945.53
2017-11-12T01:11:08.829Z,99950.39
2017-11-12T01:13:41.262Z,99956.55
2017-11-12T01:16:18.859Z,99947.84
2017-11-12T01:18:52.614Z,99954.75
2017-11-12T01:21:26.262Z,99956.03
2017-11-12T01:23:58.452Z,99958.02
2017-11-12T01:26:32.673Z,99959.48
2017-11-12T01:29:06.609Z,99956.75
2017-11-12T01:31:42.332Z,99958.73
2017-11-12T01:34:15.384Z,99962.58
2017-11-12T01:36:47.059Z,99958.56
2017-11-12T01:39:18.399Z,99950.77
2017-11-12T01:41:50.596Z,99957.77
2017-11-12T01:44:25.376Z,99958.77
2017-11-12T01:46:57.978Z,99959.22
2017-11-12T01:49:29.424Z,99956.03
2017-11-12T01:52:04.162Z,99964.56
2017-11-12T01:54:36.667Z,99955.16
2017-11-12T01:57:09.179Z,99959.92
2017-11-12T01:59:41.920Z,99960.27
2017-11-12T02:02:15.859Z,99962.58
2017-11-12T02:04:47.234Z,99957.97
2017-11-12T02:07:19.139Z,99956.38
2017-11-12T02:09:50.577Z,99944.78
2017-11-12T02:12:24.462Z,99946.33
2017-11-12T02:14:56.754Z,99945.22
2017-11-12T02:17:29.759Z,99940.10
2017-11-12T02:20:04.097Z,99937.60
2017-11-12T02:22:38.990Z,99937.60
2017-11-12T02:25:10.673Z,99942.52
2017-11-12T02:27:45.679Z,99946.42
2017-11-12T02:30:20.362Z,99945.14
2017-11-12T02:32:51.961Z,99939.59
2017-11-12T02:35:23.381Z,99940.34
2017-11-12T02:37:55.083Z,99944.27
2017-11-12T02:40:28.329Z,99947.56
2017-11-12T02:43:02.560Z,99942.19
2017-11-12T02:45:34.389Z,99934.31
2017-11-12T02:48:11.529Z,99930.53
2017-11-12T02:50:43.226Z,99923.67
2017-11-12T02:53:17.263Z,99932.89
2017-11-12T02:55:48.979Z,99935.51
2017-11-12T02:58:22.360Z,99932.03
2017-11-12T03:00:54.296Z,99923.25
2017-11-12T03:03:25.777Z,99920.09
2017-11-12T03:05:57.436Z,99916.05
2017-11-12T03:08:30.748Z,99905.89
2017-11-12T03:11:04.151Z,99906.23
2017-11-12T03:13:36.860Z,99901.42
2017-11-12T03:16:11.366Z,99900.09
2017-11-12T03:19:26.388Z,99896.91
2017-11-12T03:21:58.393Z,99883.52
2017-11-12T03:24:32.897Z,99873.14
2017-11-12T03:27:06.072Z,99873.29
2017-11-12T03:29:40.120Z,99873.31
2017-11-12T03:32:21.233Z,99871.67
2017-11-12T03:34:53.382Z,99875.11
2017-11-12T03:37:25.025Z,99879.40
2017-11-12T03:39:56.340Z,99874.56
2017-11-12T03:42:27.863Z,99871.07
2017-11-12T03:45:01.500Z,99862.73
2017-11-12T03:47:33.790Z,99860.61
2017-11-12T03:50:13.261Z,99862.30
2017-11-12T03:52:48.352Z,99858.36
2017-11-12T03:55:23.032Z,99850.25
2017-11-12T03:57:54.389Z,99846.50
2017-11-12T04:00:28.217Z,99846.63
2017-11-12T04:02:59.583Z,99848.36
2017-11-12T04:05:32.924Z,99852.89
2017-11-12T04:08:10.174Z,99853.31
2017-11-12T04:10:45.004Z,99859.34
2017-11-12T04:13:16.524Z,99856.53
2017-11-12T04:15:51.269Z,99871.58
2017-11-12T04:18:24.355Z,99866.97
2017-11-12T04:20:59.443Z,99856.97
2017-11-12T04:23:31.245Z,99853.78
2017-11-12T04:26:07.892Z,99851.95
2017-11-12T04:28:40.537Z,99844.94
2017-11-12T04:31:12.197Z,99832.06
2017-11-12T04:33:44.093Z,99833.31
2017-11-12T04:36:19.856Z,99844.29
2017-11-12T04:38:51.489Z,99850.43
2017-11-12T04:41:22.795Z,99843.46
2017-11-12T04:43:54.623Z,99838.20
2017-11-12T04:46:28.713Z,99825.16
2017-11-12T04:49:00.035Z,99815.20
2017-11-12T04:51:33.954Z,99806.60
2017-11-12T04:54:11.144Z,99797.23
2017-11-12T04:56:47.380Z,99795.19
2017-11-12T04:59:18.737Z,99792.14
2017-11-12T05:01:51.262Z,99784.94
2017-11-12T05:04:23.902Z,99780.76
2017-11-12T05:06:56.980Z,99782.02
2017-11-12T05:09:29.001Z,99784.47
2017-11-12T05:12:08.290Z,99779.39
2017-11-12T05:14:40.837Z,99779.84
2017-11-12T05:17:16.865Z,99768.50
2017-11-12T05:19:48.604Z,99760.31
2017-11-12T05:22:23.175Z,99757.95
2017-11-12T05:24:57.180Z,99777.02
2017-11-12T05:27:28.538Z,99778.50
2017-11-12T05:29:59.888Z,99774.52
2017-11-12T05:32:32.811Z,99767.83
2017-11-12T05:35:11.006Z,99767.20
2017-11-12T05:37:47.494Z,99754.01
2017-11-12T05:40:20.801Z,99748.12
2017-11-12T05:42:54.791Z,99735.69
2017-11-12T05:45:26.231Z,99732.50
2017-11-12T05:47:57.618Z,99742.41
2017-11-12T05:50:30.807Z,99745.81
2017-11-12T05:53:04.978Z,99740.28
2017-11-12T05:55:36.318Z,99737.30
2017-11-12T05:58:17.544Z,99728.36
2017-11-12T06:00:49.203Z,99721.58
2017-11-12T06:03:21.070Z,99698.14
2017-11-12T06:05:52.613Z,99697.65
2017-11-12T06:08:27.778Z,99692.51
2017-11-12T06:10:59.212Z,99692.72
2017-11-12T06:13:30.655Z,99685.55
2017-11-12T06:16:05.366Z,99683.42
2017-11-12T06:18:37.184Z,99685.58
2017-11-12T06:21:08.887Z,99683.57
2017-11-12T06:23:43.023Z,99680.37
2017-11-12T06:32:48.402Z,99671.25
2017-11-12T06:35:20.118Z,99658.17
2017-11-12T06:37:52.219Z,99649.41
2017-11-12T06:40:23.596Z,99639.28
2017-11-12T06:42:54.954Z,99633.86
2017-11-12T06:45:26.589Z,99621.38
2017-11-12T06:47:58.078Z,99616.38
2017-11-12T06:50:34.976Z,99605.13
2017-11-12T06:53:06.321Z,99591.92
2017-11-12T06:55:49.909Z,99586.05
2017-11-12T06:58:28.565Z,99582.52
2017-11-12T07:01:03.661Z,99567.23
2017-11-12T07:03:36.396Z,99553.08
2017-11-12T07:06:11.957Z,99544.70
2017-11-12T07:08:43.899Z,99543.36
2017-11-12T07:11:20.136Z,99545.23
2017-11-12T07:13:52.553Z,99534.56
2017-11-12T07:16:24.147Z,99531.06
2017-11-12T07:18:55.768Z,99529.40
2017-11-12T07:21:27.873Z,99527.86
2017-11-12T07:24:04.418Z,99525.97
2017-11-12T07:26:38.324Z,99519.16
2017-11-12T07:29:11.901Z,99515.86
2017-11-12T07:31:46.169Z,99505.98
2017-11-12T07:34:20.454Z,99501.34
2017-11-12T07:36:54.206Z,99497.28
2017-11-12T07:39:28.312Z,99488.91
2017-11-12T07:42:03.955Z,99480.77
2017-11-12T07:44:36.818Z,99477.92
2017-11-12T07:47:08.426Z,99472.86
2017-11-12T07:49:42.139Z,99470.97
2017-11-12T07:52:14.657Z,99459.78
2017-11-12T07:54:46.306Z,99453.73
2017-11-12T07:57:18.012Z,99444.29
2017-11-12T07:59:50.079Z,99437.59
2017-11-12T08:02:23.929Z,99429.31
2017-11-12T08:04:55.381Z,99416.38
2017-11-12T08:07:27.300Z,99405.35
2017-11-12T08:09:59.872Z,99399.85
2017-11-12T08:12:31.544Z,99390.61
2017-11-12T08:15:06.022Z,99375.98
2017-11-12T08:17:42.580Z,99379.95
2017-11-12T08:20:28.116Z,99369.69
2017-11-12T08:23:04.133Z,99364.03
2017-11-12T08:28:21.621Z,99347.06
2017-11-12T08:33:39.556Z,99322.52
2017-11-12T08:36:18.869Z,99315.94
2017-11-12T08:38:51.988Z,99312.10
2017-11-12T08:41:28.142Z,99301.03
2017-11-12T08:44:00.293Z,99303.02
2017-11-12T08:46:32.284Z,99301.08
2017-11-12T08:49:05.374Z,99291.79
2017-11-12T08:51:41.119Z,99286.13
2017-11-12T08:54:14.125Z,99279.96
2017-11-12T08:56:48.030Z,99271.66
2017-11-12T08:59:22.149Z,99267.43
2017-11-12T09:01:57.123Z,99262.32
2017-11-12T09:04:31.814Z,99253.17
2017-11-12T09:07:12.985Z,99248.48
2017-11-12T09:09:44.849Z,99234.91
2017-11-12T09:12:21.201Z,99231.05
2017-11-12T09:14:55.761Z,99230.70
2017-11-12T09:17:28.273Z,99226.35
2017-11-12T09:29:07.881Z,99173.63
2017-11-12T09:31:47.229Z,99165.23
2017-11-12T09:34:21.322Z,99162.64
2017-11-12T09:36:53.398Z,99161.65
2017-11-12T09:39:26.857Z,99155.37
2017-11-12T09:41:58.365Z,99143.53
2017-11-12T09:44:33.149Z,99135.69
2017-11-12T09:47:09.637Z,99120.01
2017-11-12T09:49:41.105Z,99107.86
2017-11-12T09:52:13.095Z,99089.60
2017-11-12T09:54:48.041Z,99071.37
2017-11-12T09:57:19.521Z,99070.60
2017-11-12T09:59:51.109Z,99065.48
2017-11-12T10:02:23.195Z,99054.53
2017-11-12T10:04:56.096Z,99060.45
2017-11-12T10:07:29.562Z,99070.66
2017-11-12T10:10:03.172Z,99073.63
2017-11-12T10:12:34.685Z,99085.71
2017-11-12T10:15:07.272Z,99088.16
2017-11-12T10:17:39.317Z,99082.72
2017-11-12T10:20:12.939Z,99076.42
2017-11-12T10:22:46.282Z,99076.53
2017-11-12T10:25:18.238Z,99075.90
2017-11-12T10:27:50.117Z,99077.88
2017-11-12T10:30:25.620Z,99064.73
2017-11-12T10:32:58.549Z,99058.66
2017-11-12T10:35:33.986Z,99035.70
2017-11-12T10:38:16.846Z,99024.87
2017-11-12T10:40:48.586Z,99016.44
2017-11-12T10:43:20.651Z,98998.54
2017-11-12T10:45:52.935Z,98987.91
2017-11-12T10:48:24.715Z,98990.95
2017-11-12T10:50:57.910Z,98991.66
2017-11-12T10:53:34.068Z,98985.06
2017-11-12T10:56:08.839Z,98955.38
2017-11-12T10:58:44.443Z,98925.74
2017-11-12T11:01:18.163Z,98910.92
2017-11-12T11:03:50.221Z,98898.26
2017-11-12T11:06:24.339Z,98902.43
2017-11-12T11:08:56.009Z,98901.48
2017-11-12T11:11:29.774Z,98907.72
2017-11-12T11:14:04.617Z,98913.58
2017-11-12T11:16:36.274Z,98921.13
2017-11-12T11:19:09.352Z,98920.38
2017-11-12T11:21:43.501Z,98918.47
2017-11-12T11:24:15.954Z,98914.84
2017-11-12T11:26:49.290Z,98914.14
2017-11-12T11:29:26.587Z,98913.86
2017-11-12T11:32:08.618Z,98915.69
2017-11-12T11:34:40.921Z,98925.21
2017-11-12T11:37:18.301Z,98938.75
2017-11-12T11:39:55.223Z,98932.35
2017-11-12T11:42:35.589Z,98927.33
2017-11-12T11:45:08.657Z,98922.88
2017-11-12T11:47:40.393Z,98898.25
2017-11-12T11:50:16.325Z,98889.00
2017-11-12T11:52:50.633Z,98882.61
2017-11-12T11:55:25.176Z,98874.31
2017-11-12T11:58:00.582Z,98882.07
2017-11-12T12:00:51.763Z,98880.11
2017-11-12T12:03:34.137Z,98851.29
2017-11-12T12:06:23.200Z,98871.27
2017-11-12T12:09:00.815Z,98876.09
2017-11-12T12:11:35.015Z,98864.08
2017-11-12T12:14:13.545Z,98863.01
2017-11-12T12:16:46.086Z,98879.45
2017-11-12T12:19:22.797Z,98881.02
2017-11-12T12:21:56.388Z,98876.56
2017-11-12T12:24:37.116Z,98877.34
2017-11-12T12:27:10.713Z,98861.41
2017-11-12T12:29:48.789Z,98846.17
2017-11-12T12:32:22.431Z,98804.55
2017-11-12T12:34:56.704Z,98741.20
2017-11-12T12:37:31.410Z,98802.45
2017-11-12T12:40:05.419Z,98856.83
2017-11-12T12:42:39.862Z,98886.41
2017-11-12T12:45:32.617Z,98887.91
2017-11-12T12:48:12.818Z,98869.06
2017-11-12T12:50:48.082Z,98808.73
2017-11-12T12:53:21.815Z,98824.92
2017-11-12T12:55:56.747Z,98820.70
2017-11-12T12:58:30.286Z,98835.08
2017-11-12T13:01:07.021Z,98895.86
2017-11-12T13:03:39.517Z,98915.66
2017-11-12T13:06:17.612Z,98958.60
2017-11-12T13:08:50.579Z,98966.42
2017-11-12T13:11:23.462Z,98937.52
2017-11-12T13:14:00.066Z,98938.17
2017-11-12T13:16:36.218Z,98944.33
2017-11-12T13:19:15.319Z,98955.93
2017-11-12T13:21:56.408Z,98969.61
2017-11-12T13:24:34.010Z,98967.36
2017-11-12T13:27:12.562Z,98895.08
2017-11-12T13:29:44.861Z,98877.20
2017-11-12T13:32:21.878Z,98911.42
2017-11-12T13:34:55.730Z,98913.37
2017-11-12T13:37:34.168Z,98942.17
2017-11-12T13:40:13.072Z,98958.27
2017-11-12T13:42:50.095Z,98968.73
2017-11-12T13:45:23.336Z,98956.30
2017-11-12T13:47:57.017Z,98958.78
2017-11-12T13:50:36.180Z,98966.89
2017-11-12T13:53:13.430Z,98956.69
2017-11-12T13:55:47.035Z,98957.42
2017-11-12T13:58:34.263Z,98966.27
2017-11-12T14:01:19.482Z,98966.09
2017-11-12T14:03:52.117Z,98939.89
2017-11-12T14:06:26.354Z,98908.75
2017-11-12T14:12:10.325Z,98922.85
2017-11-12T14:14:43.811Z,98927.97
2017-11-12T14:17:17.859Z,98948.23
2017-11-12T14:19:52.958Z,98962.08
2017-11-12T14:28:44.750Z,98984.09
2017-11-12T14:33:57.897Z,98970.33
2017-11-12T14:36:31.447Z,98974.08
2017-11-12T14:39:06.313Z,98987.44
2017-11-12T14:41:39.917Z,98991.77
2017-11-12T14:44:13.338Z,98993.92
2017-11-12T14:46:46.715Z,99029.60
2017-11-12T14:49:22.478Z,99043.45
2017-11-12T14:51:55.864Z,99054.46
2017-11-12T14:54:29.001Z,99052.31
2017-11-12T14:57:05.884Z,99047.72
2017-11-12T14:59:38.932Z,99041.07
2017-11-12T15:02:12.064Z,99050.30
2017-11-12T15:04:45.118Z,99052.78
2017-11-12T15:07:18.285Z,99068.00
2017-11-12T15:09:51.059Z,99061.55
2017-11-12T15:12:24.806Z,99044.30
2017-11-12T15:15:02.862Z,99032.11
2017-11-12T15:17:37.332Z,99045.70
2017-11-12T15:20:10.351Z,99034.75
2017-11-12T15:22:44.125Z,99030.26
2017-11-12T15:25:16.897Z,99032.77
2017-11-12T15:46:38.862Z,99077.77
2017-11-12T15:49:18.341Z,99121.04
2017-11-12T15:52:22.340Z,99131.52
2017-11-12T15:54:59.115Z,99146.13
2017-11-12T16:01:06.821Z,99138.93
2017-11-12T16:03:50.216Z,99140.66
2017-11-12T16:09:53.547Z,99149.12
2017-11-12T16:21:47.184Z,99194.25
2017-11-12T16:24:33.877Z,99199.25
2017-11-12T16:27:54.435Z,99219.98
2017-11-12T16:42:12.193Z,99240.71
2017-11-12T16:44:44.795Z,99251.09
2017-11-12T16:47:19.573Z,99249.71
2017-11-12T16:49:53.897Z,99248.92
2017-11-12T16:52:35.675Z,99241.37
2017-11-12T16:57:53.807Z,99250.77
2017-11-12T17:00:31.050Z,99251.64
2017-11-12T17:03:04.705Z,99260.47
2017-11-12T17:05:37.734Z,99263.16
2017-11-12T17:08:11.906Z,99269.49
2017-11-12T17:10:44.849Z,99269.64
2017-11-12T17:13:19.075Z,99265.78
2017-11-12T17:19:16.946Z,99281.15
2017-11-12T17:21:50.540Z,99287.96
2017-11-12T17:24:23.863Z,99284.25
2017-11-12T17:26:57.472Z,99278.78
2017-11-12T17:29:29.627Z,99289.02
2017-11-12T17:32:09.477Z,99290.91
2017-11-12T17:34:44.637Z,99307.41
2017-11-12T17:37:16.814Z,99303.64
2017-11-12T17:39:49.215Z,99311.52
2017-11-12T17:42:23.562Z,99314.45
2017-11-12T17:45:06.539Z,99318.91
2017-11-12T17:47:40.583Z,99335.28
2017-11-12T17:50:17.918Z,99328.41
2017-11-12T17:52:52.761Z,99334.52
2017-11-12T17:55:29.596Z,99346.63
2017-11-12T17:58:03.666Z,99342.90
2017-11-12T18:00:37.016Z,99348.34
2017-11-12T18:03:12.045Z,99349.45
2017-11-12T18:05:45.813Z,99352.03
2017-11-12T18:08:19.214Z,99356.87
2017-11-12T18:13:54.322Z,99361.03
2017-11-12T18:16:37.650Z,99364.56
2017-11-12T18:19:09.866Z,99368.22
2017-11-12T18:21:42.408Z,99378.73
2017-11-12T18:24:29.202Z,99379.95
2017-11-12T18:27:06.336Z,99391.51
2017-11-12T18:30:29.077Z,99394.06
2017-11-12T18:33:07.927Z,99395.36
2017-11-12T18:35:40.349Z,99408.19
2017-11-12T18:38:24.347Z,99413.45
2017-11-12T18:41:03.526Z,99413.62
2017-11-12T18:43:36.649Z,99416.02
2017-11-12T18:46:12.424Z,99414.05
2017-11-12T18:48:46.567Z,99425.69
2017-11-12T18:51:23.917Z,99431.08
2017-11-12T18:53:58.688Z,99435.83
2017-11-12T18:56:33.631Z,99436.44
2017-11-12T18:59:06.446Z,99449.55
2017-11-12T19:01:39.761Z,99455.41
2017-11-12T19:04:21.097Z,99461.72
2017-11-12T19:07:06.265Z,99474.13
2017-11-12T19:09:39.856Z,99479.44
2017-11-12T19:12:18.741Z,99483.80
2017-11-12T19:14:57.168Z,99486.31
2017-11-12T19:17:30.960Z,99478.14
2017-11-12T19:20:10.639Z,99483.50
2017-11-12T19:22:51.012Z,99488.13
2017-11-12T19:25:25.813Z,99493.20
2017-11-12T19:28:06.793Z,99494.58
2017-11-12T19:30:55.319Z,99490.80
2017-11-12T19:33:32.959Z,99507.83
2017-11-12T19:36:12.681Z,99509.70
2017-11-12T19:38:48.637Z,99516.41
2017-11-12T19:41:20.987Z,99525.58
2017-11-12T19:44:05.515Z,99525.25
2017-11-12T19:46:39.712Z,99531.78
2017-11-12T19:49:14.240Z,99531.59
2017-11-12T19:51:46.884Z,99543.84
2017-11-12T19:54:21.846Z,99552.83
2017-11-12T19:57:00.591Z,99552.98
2017-11-12T19:59:33.024Z,99559.15
2017-11-12T20:02:09.177Z,99561.38
2017-11-12T20:04:42.392Z,99567.86
2017-11-12T20:07:14.604Z,99570.12
2017-11-12T20:12:40.814Z,99589.83
2017-11-12T20:15:13.001Z,99582.63
2017-11-12T20:17:44.761Z,99594.39
2017-11-12T20:20:17.701Z,99603.11
2017-11-12T20:22:50.284Z,99606.23
2017-11-12T20:25:24.498Z,99610.81
2017-11-12T20:28:30.425Z,99613.22
2017-11-12T20:31:06.925Z,99613.42
2017-11-12T20:33:38.351Z,99616.84
2017-11-12T20:36:10.692Z,99629.97
2017-11-12T20:38:56.811Z,99630.39
2017-11-12T20:41:31.862Z,99634.78
2017-11-12T20:44:13.370Z,99629.97
2017-11-12T20:46:46.273Z,99633.05
2017-11-12T20:49:17.970Z,99645.69
2017-11-12T20:52:05.752Z,99647.06
2017-11-12T20:54:37.519Z,99651.80
2017-11-12T20:57:16.199Z,99652.42
2017-11-12T20:59:55.954Z,99659.69
2017-11-12T21:02:32.942Z,99663.07
2017-11-12T21:05:07.450Z,99669.05
2017-11-12T21:08:03.670Z,99667.98
2017-11-12T21:13:56.343Z,99684.38
2017-11-12T21:16:28.120Z,99683.91
2017-11-12T21:19:01.869Z,99686.58
2017-11-12T21:24:49.033Z,99687.87
2017-11-12T21:27:20.907Z,99699.56
2017-11-12T21:29:57.941Z,99697.66
2017-11-12T21:32:33.154Z,99698.25
2017-11-12T21:35:07.791Z,99699.86
2017-11-12T21:37:40.583Z,99698.55
2017-11-12T21:40:15.496Z,99700.66
2017-11-12T21:42:47.487Z,99710.72
2017-11-12T21:45:21.520Z,99704.89
2017-11-12T21:47:54.453Z,99710.00
2017-11-12T21:50:31.498Z,99700.98
2017-11-12T21:53:17.038Z,99707.97
2017-11-12T21:55:50.105Z,99714.45
2017-11-12T21:58:30.497Z,99719.23
2017-11-12T22:01:06.315Z,99718.13
2017-11-12T22:03:38.170Z,99720.69
2017-11-12T22:06:22.001Z,99716.98
2017-11-12T22:08:59.913Z,99721.27
2017-11-12T22:14:26.124Z,99726.89
2017-11-12T22:16:59.423Z,99723.91
2017-11-12T22:19:32.993Z,99731.27
2017-11-12T22:22:10.158Z,99736.88
2017-11-12T22:24:41.754Z,99738.64
2017-11-12T22:27:15.063Z,99743.40
2017-11-12T22:30:27.896Z,99746.73
2017-11-12T22:33:00.424Z,99755.84
2017-11-12T22:35:33.846Z,99758.20
2017-11-12T22:38:07.998Z,99763.11
2017-11-12T22:40:39.344Z,99765.80
2017-11-12T22:43:10.821Z,99763.67
2017-11-12T22:45:45.512Z,99770.42
2017-11-12T22:48:21.560Z,99775.61
2017-11-12T22:50:54.046Z,99771.81
2017-11-12T22:53:26.252Z,99777.53
2017-11-12T22:55:58.341Z,99781.36
2017-11-12T22:58:29.834Z,99786.49
2017-11-12T23:01:04.133Z,99778.94
2017-11-12T23:06:24.807Z,99790.77
2017-11-12T23:09:02.016Z,99796.38
2017-11-12T23:11:34.301Z,99803.47
2017-11-12T23:14:11.219Z,99803.14
2017-11-12T23:16:43.200Z,99804.34
2017-11-12T23:19:16.595Z,99797.73
2017-11-12T23:21:49.968Z,99800.52
2017-11-12T23:24:22.823Z,99800.52
2017-11-12T23:26:55.342Z,99797.42
2017-11-12T23:29:27.853Z,99799.30
2017-11-12T23:32:03.395Z,99809.73
2017-11-12T23:34:34.781Z,99809.15
2017-11-12T23:37:07.868Z,99800.29
2017-11-12T23:39:39.515Z,99805.05
2017-11-12T23:42:15.162Z,99803.75
2017-11-12T23:44:46.992Z,99809.73
2017-11-12T23:47:19.135Z,99807.13
2017-11-12T23:49:51.155Z,99812.44
2017-11-12T23:52:22.983Z,99810.17
2017-11-12T23:55:00.167Z,99816.86
2017-11-12T23:57:31.894Z,99817.49
